San Antonio, TX (78244)

1:50 AM CST on February 06, 2016 (GMT -0600)
kirby tx | | Change Station
CLOSE
Current Station
Personal Weather Station
Location: Kirby, TX
Elevation: 696 ft
Nearby Weather Stations

Elev 696 ft 29.45 °N, 98.38 °W | Updated 39 minutes ago

Clear
Clear
45.3 °F
Feels Like 45 °F
N
0.0
Wind Variable Wind from SE
Gusts 15.0 mph

Today
High -- | Low -- °F
--% Chance of Precip.
Yesterday
High -- | Low -- °F
Precip. -- in
Pressure 30.31 in
Visibility 10.0 miles
Clouds Clear
Windchill 45 °F
Dew Point 39 °F
Humidity 78%
Rainfall 0.00 in
Snow Depth Not available.
7:19 AM 6:15 PM
Waning Crescent, 7% visible
METAR KRND 060658Z AUTO 26002KT 10SM CLR 08/04 A3031 RMK AO2 SLP264 T00830037
Pressure 30.31 in
Visibility 10.0 miles
Clouds Clear
Windchill 45 °F
Dew Point 39 °F
Humidity 78%
Rainfall 0.00 in
Snow Depth Not available.
7:19 AM 6:15 PM
Waning Crescent, 7% visible
METAR KRND 060658Z AUTO 26002KT 10SM CLR 08/04 A3031 RMK AO2 SLP264 T00830037

10-Day Weather Forecast

Almanac

Astronomy

Feb. 06, 2016 Rise Set
Actual Time
Civil Twilight
Nautical Twilight
Astronomical Twilight
Moon
Length of Visible Light
Length of Day
Tomorrow will be .
, % of the Moon is Illuminated

Today's Extremes

State Highs State Lows

Community

WunderPhotos

Upload Photos

1,890,933 photos uploaded!

WunderBlog® & News

Nearby

Air Quality

  Air Quality AQ Index Pollutant
Not available.

Snow Depth

Station Depth Elevation

Earthquake Activity

City Distance Mag. Time & Date
Minimum magnitude displayed is 2.5.

Coastal Water Temperatures

Place Temperature

Stations

Nearby Weather Stations

Station Location Temp. Windchill Dew Point Humidity Wind Precip. Elev Updated Type
                   

Watches & Warnings

There are currently no watches in effect.